createdAt,value
2019-03-31T00:01:26.350Z,101439.94
2019-03-31T00:03:27.728Z,101437.84
2019-03-31T00:05:29.109Z,101437.20
2019-03-31T00:07:30.497Z,101438.81
2019-03-31T00:09:31.902Z,101438.49
2019-03-31T00:11:33.252Z,101435.38
2019-03-31T00:13:34.622Z,101435.90
2019-03-31T00:15:36.035Z,101437.02
2019-03-31T00:17:37.402Z,101437.70
2019-03-31T00:19:38.804Z,101438.45
2019-03-31T00:21:40.187Z,101430.52
2019-03-31T00:23:41.570Z,101437.61
2019-03-31T00:25:44.911Z,101434.05
2019-03-31T00:27:46.282Z,101433.55
2019-03-31T00:29:47.649Z,101433.28
2019-03-31T00:31:49.059Z,101434.45
2019-03-31T00:33:50.416Z,101433.78
2019-03-31T00:35:51.826Z,101436.30
2019-03-31T00:37:53.230Z,101436.08
2019-03-31T00:39:54.604Z,101440.57
2019-03-31T00:41:55.976Z,101441.77
2019-03-31T00:43:57.363Z,101441.66
2019-03-31T00:45:58.821Z,101446.86
2019-03-31T00:48:00.252Z,101448.48
2019-03-31T00:50:01.624Z,101446.59
2019-03-31T00:52:03.019Z,101448.17
2019-03-31T00:54:04.438Z,101451.48
2019-03-31T00:56:05.807Z,101447.55
2019-03-31T00:58:07.275Z,101448.73
2019-03-31T01:00:10.759Z,101449.79
2019-03-31T01:02:16.240Z,101455.25
2019-03-31T01:04:19.901Z,101452.08
2019-03-31T01:06:21.706Z,101458.36
2019-03-31T01:08:25.719Z,101453.72
2019-03-31T01:10:28.889Z,101455.80
2019-03-31T01:12:30.360Z,101457.64
2019-03-31T01:14:32.060Z,101463.30
2019-03-31T01:16:33.549Z,101460.83
2019-03-31T01:18:34.999Z,101468.48
2019-03-31T01:20:36.438Z,101456.63
2019-03-31T01:22:37.797Z,101457.13
2019-03-31T01:24:39.205Z,101461.73
2019-03-31T01:26:40.608Z,101465.87
2019-03-31T01:28:42.085Z,101464.41
2019-03-31T01:30:43.584Z,101464.23
2019-03-31T01:32:44.966Z,101466.89
2019-03-31T01:34:46.345Z,101465.67
2019-03-31T01:36:47.731Z,101464.70
2019-03-31T01:38:49.247Z,101467.25
2019-03-31T01:40:50.738Z,101469.52
2019-03-31T01:42:52.128Z,101469.11
2019-03-31T01:44:53.498Z,101465.59
2019-03-31T01:46:54.851Z,101466.97
2019-03-31T01:48:56.436Z,101464.42
2019-03-31T01:50:57.809Z,101463.18
2019-03-31T01:52:59.187Z,101462.21
2019-03-31T01:55:00.591Z,101468.98
2019-03-31T01:57:02.081Z,101473.53
2019-03-31T01:59:03.486Z,101476.66
2019-03-31T02:01:07.344Z,101472.89
2019-03-31T02:03:08.835Z,101479.53
2019-03-31T02:05:10.232Z,101481.59
2019-03-31T02:07:11.746Z,101483.20
2019-03-31T02:09:13.155Z,101479.78
2019-03-31T02:11:14.578Z,101480.66
2019-03-31T02:13:15.939Z,101480.11
2019-03-31T02:15:17.316Z,101479.73
2019-03-31T02:17:19.121Z,101464.39
2019-03-31T02:19:20.546Z,101478.27
2019-03-31T02:21:21.913Z,101478.09
2019-03-31T02:23:23.318Z,101478.70
2019-03-31T02:25:24.806Z,101482.47
2019-03-31T02:27:26.216Z,101477.93
2019-03-31T02:29:27.624Z,101477.31
2019-03-31T02:31:29.079Z,101484.09
2019-03-31T02:33:30.429Z,101482.67
2019-03-31T02:35:31.856Z,101484.17
2019-03-31T02:37:33.230Z,101484.23
2019-03-31T02:39:34.676Z,101484.13
2019-03-31T02:41:36.215Z,101489.88
2019-03-31T02:43:37.587Z,101490.55
2019-03-31T02:45:38.957Z,101491.20
2019-03-31T02:47:40.380Z,101493.53
2019-03-31T02:49:41.824Z,101490.23
2019-03-31T02:51:43.234Z,101491.08
2019-03-31T02:53:44.597Z,101492.73
2019-03-31T02:55:46.152Z,101495.09
2019-03-31T02:57:48.258Z,101490.92
2019-03-31T02:59:50.342Z,101497.34
2019-03-31T03:01:53.225Z,101493.90
2019-03-31T03:03:54.810Z,101496.93
2019-03-31T03:05:58.684Z,101498.02
2019-03-31T03:08:00.458Z,101497.86
2019-03-31T03:10:03.560Z,101497.36
2019-03-31T03:12:08.346Z,101502.53
2019-03-31T03:14:11.548Z,101500.59
2019-03-31T03:16:17.721Z,101507.16
2019-03-31T03:18:19.143Z,101508.53
2019-03-31T03:20:20.640Z,101509.34
2019-03-31T03:22:21.984Z,101510.26
2019-03-31T03:24:23.393Z,101512.38
2019-03-31T03:26:24.751Z,101516.13
2019-03-31T03:28:26.099Z,101514.62
2019-03-31T03:30:27.614Z,101518.30
2019-03-31T03:32:29.133Z,101517.49
2019-03-31T03:34:30.725Z,101524.54
2019-03-31T03:36:32.172Z,101524.87
2019-03-31T03:38:33.549Z,101520.83
2019-03-31T03:40:34.923Z,101524.09
2019-03-31T03:42:36.337Z,101526.99
2019-03-31T03:44:37.692Z,101530.11
2019-03-31T03:46:39.058Z,101529.36
2019-03-31T03:48:40.441Z,101529.40
2019-03-31T03:50:41.852Z,101537.70
2019-03-31T03:52:43.324Z,101546.61
2019-03-31T03:54:44.728Z,101542.13
2019-03-31T03:56:46.096Z,101543.09
2019-03-31T03:58:47.463Z,101547.77
2019-03-31T04:00:48.878Z,101544.68
2019-03-31T04:02:50.220Z,101550.34
2019-03-31T04:04:51.608Z,101542.61
2019-03-31T04:06:53.119Z,101542.83
2019-03-31T04:08:54.478Z,101550.66
2019-03-31T04:11:09.494Z,101544.80
2019-03-31T04:13:11.207Z,101546.07
2019-03-31T04:15:12.566Z,101552.97
2019-03-31T04:17:13.958Z,101547.11
2019-03-31T04:19:15.347Z,101553.25
2019-03-31T04:21:16.800Z,101551.49
2019-03-31T04:23:18.176Z,101552.48
2019-03-31T04:25:19.552Z,101555.92
2019-03-31T04:27:20.930Z,101556.02
2019-03-31T04:29:22.301Z,101561.84
2019-03-31T04:31:23.694Z,101561.72
2019-03-31T04:33:25.050Z,101560.70
2019-03-31T04:35:26.520Z,101567.31
2019-03-31T04:37:27.899Z,101570.95
2019-03-31T04:39:30.149Z,101568.37
2019-03-31T04:41:31.539Z,101572.39
2019-03-31T04:43:32.916Z,101575.63
2019-03-31T04:45:35.022Z,101582.66
2019-03-31T04:47:36.373Z,101583.30
2019-03-31T04:49:37.742Z,101589.04
2019-03-31T04:51:39.160Z,101584.47
2019-03-31T04:53:40.518Z,101589.88
2019-03-31T04:55:41.887Z,101590.30
2019-03-31T04:57:43.448Z,101595.28
2019-03-31T04:59:44.819Z,101594.00
2019-03-31T05:01:46.167Z,101598.27
2019-03-31T05:03:47.742Z,101600.33
2019-03-31T05:05:49.124Z,101611.68
2019-03-31T05:07:50.502Z,101613.78
2019-03-31T05:09:51.908Z,101615.73
2019-03-31T05:11:53.262Z,101621.61
2019-03-31T05:13:54.642Z,101622.87
2019-03-31T05:15:56.038Z,101624.80
2019-03-31T05:17:57.442Z,101630.25
2019-03-31T05:19:58.795Z,101635.55
2019-03-31T05:22:00.196Z,101641.34
2019-03-31T05:24:01.570Z,101644.70
2019-03-31T05:26:02.917Z,101649.34
2019-03-31T05:28:04.320Z,101651.56
2019-03-31T05:30:05.987Z,101653.53
2019-03-31T05:32:07.362Z,101659.09
2019-03-31T05:34:18.993Z,101662.48
2019-03-31T05:36:12.212Z,101668.64
2019-03-31T05:38:13.566Z,101673.73
2019-03-31T05:40:14.967Z,101664.69
2019-03-31T05:42:16.332Z,101670.72
2019-03-31T05:44:17.750Z,101679.08
2019-03-31T05:46:19.103Z,101680.34
2019-03-31T05:48:20.505Z,101681.66
2019-03-31T05:50:21.901Z,101683.05
2019-03-31T05:52:23.256Z,101686.98
2019-03-31T05:54:24.615Z,101688.55
2019-03-31T05:56:26.128Z,101692.38
2019-03-31T05:58:27.547Z,101690.30
2019-03-31T06:00:32.524Z,101695.66
2019-03-31T06:02:33.886Z,101688.70
2019-03-31T06:04:35.302Z,101690.28
2019-03-31T06:06:37.164Z,101700.04
2019-03-31T06:08:38.724Z,101697.27
2019-03-31T06:10:40.127Z,101695.28
2019-03-31T06:12:41.569Z,101696.39
2019-03-31T06:14:42.967Z,101706.74
2019-03-31T06:16:44.374Z,101714.02
2019-03-31T06:18:45.745Z,101711.91
2019-03-31T06:20:47.158Z,101718.67
2019-03-31T06:22:48.496Z,101723.66
2019-03-31T06:24:49.875Z,101722.94
2019-03-31T06:26:51.272Z,101724.70
2019-03-31T06:28:52.630Z,101724.89
2019-03-31T06:30:54.092Z,101722.66
2019-03-31T06:32:55.717Z,101728.29
2019-03-31T06:34:57.169Z,101735.70
2019-03-31T06:36:58.572Z,101737.34
2019-03-31T06:38:59.990Z,101740.19
2019-03-31T06:41:01.355Z,101749.94
2019-03-31T06:43:02.938Z,101744.16
2019-03-31T06:45:06.358Z,101758.93
2019-03-31T06:47:07.804Z,101761.22
2019-03-31T06:49:09.200Z,101765.27
2019-03-31T06:51:10.778Z,101763.27
2019-03-31T06:53:12.144Z,101768.60
2019-03-31T06:55:13.537Z,101776.08
2019-03-31T06:57:15.020Z,101775.48
2019-03-31T06:59:16.424Z,101776.28
2019-03-31T07:01:17.852Z,101786.30
2019-03-31T07:03:19.228Z,101789.44
2019-03-31T07:05:20.683Z,101786.61
2019-03-31T07:07:23.826Z,101789.20
2019-03-31T07:09:25.473Z,101788.88
2019-03-31T07:11:26.863Z,101793.31
2019-03-31T07:13:28.286Z,101793.29
2019-03-31T07:15:29.648Z,101790.17
2019-03-31T07:17:31.058Z,101792.39
2019-03-31T07:19:32.462Z,101801.22
2019-03-31T07:21:33.824Z,101801.20
2019-03-31T07:23:35.243Z,101806.38
2019-03-31T07:25:37.331Z,101805.97
2019-03-31T07:27:38.907Z,101809.98
2019-03-31T07:29:40.303Z,101805.66
2019-03-31T07:31:41.655Z,101810.42
2019-03-31T07:33:43.009Z,101813.16
2019-03-31T07:35:44.416Z,101820.92
2019-03-31T07:37:47.593Z,101823.86
2019-03-31T07:39:49.276Z,101825.45
2019-03-31T07:41:51.074Z,101830.09
2019-03-31T07:43:52.516Z,101838.62
2019-03-31T07:45:55.832Z,101839.30
2019-03-31T07:47:57.162Z,101842.18
2019-03-31T07:49:58.544Z,101842.48
2019-03-31T07:52:00.110Z,101849.33
2019-03-31T07:54:01.467Z,101850.63
2019-03-31T07:56:02.828Z,101851.00
2019-03-31T07:58:04.269Z,101854.45
2019-03-31T08:00:16.218Z,101857.06
2019-03-31T08:02:17.679Z,101865.13
2019-03-31T08:04:19.083Z,101860.68
2019-03-31T08:06:20.488Z,101864.80
2019-03-31T08:08:21.885Z,101867.00
2019-03-31T08:10:23.366Z,101867.31
2019-03-31T08:12:24.783Z,101869.38
2019-03-31T08:14:26.178Z,101873.20
2019-03-31T08:16:27.695Z,101870.11
2019-03-31T08:18:29.071Z,101874.31
2019-03-31T08:20:30.436Z,101880.38
2019-03-31T08:22:31.860Z,101876.72
2019-03-31T08:24:42.100Z,101869.62
2019-03-31T08:26:43.511Z,101872.00
2019-03-31T08:28:44.916Z,101880.95
2019-03-31T08:30:46.274Z,101882.19
2019-03-31T08:32:47.676Z,101880.16
2019-03-31T08:34:49.068Z,101881.03
2019-03-31T08:36:50.447Z,101885.19
2019-03-31T08:38:51.868Z,101890.98
2019-03-31T08:40:53.335Z,101894.30
2019-03-31T08:42:54.704Z,101905.77
2019-03-31T08:44:56.118Z,101908.27
2019-03-31T08:46:57.470Z,101912.88
2019-03-31T08:48:58.845Z,101913.56
2019-03-31T08:51:00.256Z,101914.05
2019-03-31T08:53:01.618Z,101916.94
2019-03-31T08:55:04.930Z,101917.14
2019-03-31T08:57:06.307Z,101912.55
2019-03-31T08:59:07.686Z,101920.84
2019-03-31T09:01:11.007Z,101918.03
2019-03-31T09:03:12.396Z,101921.41
2019-03-31T09:05:14.119Z,101923.58
2019-03-31T09:07:15.832Z,101925.48
2019-03-31T09:09:17.192Z,101922.59
2019-03-31T09:11:18.891Z,101924.42
2019-03-31T09:13:20.271Z,101928.98
2019-03-31T09:15:21.675Z,101926.66
2019-03-31T09:17:23.098Z,101928.20
2019-03-31T09:19:24.510Z,101934.41
2019-03-31T09:21:25.893Z,101937.37
2019-03-31T09:23:27.299Z,101941.72
2019-03-31T09:25:28.692Z,101939.03
2019-03-31T09:27:30.067Z,101936.88
2019-03-31T09:29:31.449Z,101937.12
2019-03-31T09:31:32.831Z,101941.58
2019-03-31T09:33:34.252Z,101943.77
2019-03-31T09:35:35.617Z,101942.39
2019-03-31T09:37:37.085Z,101938.27
2019-03-31T09:39:38.478Z,101933.97
2019-03-31T09:41:39.836Z,101933.72
2019-03-31T09:43:41.242Z,101931.02
2019-03-31T09:45:42.638Z,101936.70
2019-03-31T09:47:43.987Z,101937.61
2019-03-31T09:49:45.381Z,101937.31
2019-03-31T09:51:46.743Z,101933.96
2019-03-31T09:53:48.126Z,101928.11
2019-03-31T09:55:49.539Z,101927.84
2019-03-31T09:57:50.928Z,101941.02
2019-03-31T09:59:52.276Z,101931.77
2019-03-31T10:01:53.685Z,101938.33
2019-03-31T10:03:55.074Z,101933.98
2019-03-31T10:06:09.944Z,101938.84
2019-03-31T10:07:59.828Z,101937.47
2019-03-31T10:10:02.810Z,101936.70
2019-03-31T10:12:04.232Z,101940.03
2019-03-31T10:14:05.587Z,101936.02
2019-03-31T10:16:06.959Z,101934.84
2019-03-31T10:18:08.386Z,101941.66
2019-03-31T10:20:09.951Z,101943.96
2019-03-31T10:22:11.318Z,101943.44
2019-03-31T10:24:12.722Z,101939.34
2019-03-31T10:26:16.162Z,101935.08
2019-03-31T10:28:17.358Z,101939.67
2019-03-31T10:30:33.510Z,101932.86
2019-03-31T10:32:54.787Z,101942.66
2019-03-31T10:35:36.027Z,101900.73
2019-03-31T10:38:17.226Z,101948.37
2019-03-31T10:40:58.380Z,101947.02
2019-03-31T10:42:59.780Z,101959.89
2019-03-31T10:45:21.107Z,101921.74
2019-03-31T10:47:42.383Z,101971.14
2019-03-31T10:50:25.485Z,101975.24
2019-03-31T10:52:46.859Z,101971.76
2019-03-31T10:55:08.274Z,101934.75
2019-03-31T10:57:29.582Z,101974.31
2019-03-31T10:59:50.831Z,101926.70
2019-03-31T11:02:12.333Z,101976.81
2019-03-31T11:04:33.607Z,101973.89
2019-03-31T11:06:59.618Z,101952.02
2019-03-31T11:09:38.001Z,101970.03
2019-03-31T11:11:52.426Z,101931.31
2019-03-31T11:14:13.707Z,101931.48
2019-03-31T11:16:35.008Z,101971.80
2019-03-31T11:18:56.291Z,101963.57
2019-03-31T11:24:06.805Z,101916.50
2019-03-31T11:26:28.066Z,101930.08
2019-03-31T11:28:49.343Z,101913.00
2019-03-31T11:31:10.649Z,101966.57
2019-03-31T11:33:31.934Z,101962.20
2019-03-31T11:35:53.301Z,101968.93
2019-03-31T11:38:14.652Z,101970.80
2019-03-31T11:40:35.925Z,101925.52
2019-03-31T11:42:57.182Z,101930.41
2019-03-31T11:45:18.569Z,101968.30
2019-03-31T11:47:19.990Z,101971.05
2019-03-31T11:49:41.235Z,101925.59
2019-03-31T11:51:56.457Z,101977.55
2019-03-31T11:54:17.794Z,101984.94
2019-03-31T11:56:39.062Z,101974.64
2019-03-31T11:58:40.419Z,101980.02
2019-03-31T12:00:46.610Z,101976.49
2019-03-31T12:02:47.969Z,101972.63
2019-03-31T12:04:49.343Z,101975.34
2019-03-31T12:06:50.721Z,101975.56
2019-03-31T12:08:52.115Z,101967.78
2019-03-31T12:10:53.582Z,101970.50
2019-03-31T12:12:54.958Z,101973.06
2019-03-31T12:15:00.733Z,101967.77
2019-03-31T12:16:59.678Z,101962.64
2019-03-31T12:19:01.125Z,101972.15
2019-03-31T12:21:02.583Z,101972.91
2019-03-31T12:23:03.959Z,101964.77
2019-03-31T12:25:07.441Z,101966.69
2019-03-31T12:27:08.814Z,101967.42
2019-03-31T12:29:10.192Z,101967.22
2019-03-31T12:31:11.568Z,101964.59
2019-03-31T12:33:12.951Z,101962.76
2019-03-31T12:35:14.360Z,101956.02
2019-03-31T12:37:15.713Z,101967.14
2019-03-31T12:39:17.126Z,101962.35
2019-03-31T12:41:18.516Z,101966.47
2019-03-31T12:43:19.931Z,101962.32
2019-03-31T12:45:21.290Z,101957.91
2019-03-31T12:47:22.642Z,101958.44
2019-03-31T12:49:24.036Z,101952.16
2019-03-31T12:51:25.414Z,101944.02
2019-03-31T12:53:26.792Z,101944.04
2019-03-31T12:55:28.195Z,101951.44
2019-03-31T12:57:29.554Z,101946.67
2019-03-31T12:59:30.917Z,101941.87
2019-03-31T13:01:32.305Z,101947.58
2019-03-31T13:03:33.703Z,101946.80
2019-03-31T13:05:35.072Z,101946.70
2019-03-31T13:07:36.444Z,101931.13
2019-03-31T13:09:37.826Z,101939.39
2019-03-31T13:11:39.235Z,101939.84
2019-03-31T13:13:40.587Z,101936.21
2019-03-31T13:15:41.981Z,101937.27
2019-03-31T13:17:43.374Z,101932.20
2019-03-31T13:19:44.745Z,101945.97
2019-03-31T13:21:46.091Z,101928.08
2019-03-31T13:23:47.494Z,101927.14
2019-03-31T13:25:48.889Z,101927.71
2019-03-31T13:27:50.245Z,101924.04
2019-03-31T13:29:51.601Z,101923.32
2019-03-31T13:31:52.979Z,101922.43
2019-03-31T13:33:54.350Z,101926.97
2019-03-31T13:35:55.746Z,101922.92
2019-03-31T13:38:10.433Z,101925.72
2019-03-31T13:40:00.416Z,101932.70
2019-03-31T13:42:01.786Z,101930.22
2019-03-31T13:44:03.313Z,101936.88
2019-03-31T13:46:04.679Z,101940.22
2019-03-31T13:48:06.049Z,101937.55
2019-03-31T13:50:08.040Z,101934.53
2019-03-31T13:52:09.435Z,101931.39
2019-03-31T13:54:10.790Z,101927.49
2019-03-31T13:56:12.482Z,101929.30
2019-03-31T13:58:15.158Z,101930.25
2019-03-31T14:00:33.554Z,101927.84
2019-03-31T14:02:35.020Z,101924.12
2019-03-31T14:04:50.725Z,101923.00
2019-03-31T14:06:39.669Z,101922.96
2019-03-31T14:08:41.053Z,101921.42
2019-03-31T14:10:43.446Z,101922.09
2019-03-31T14:12:44.791Z,101925.78
2019-03-31T14:14:46.207Z,101923.86
2019-03-31T14:16:47.549Z,101924.43
2019-03-31T14:18:48.904Z,101930.61
2019-03-31T14:20:50.297Z,101929.70
2019-03-31T14:22:51.652Z,101923.28
2019-03-31T14:24:53.019Z,101920.98
2019-03-31T14:26:54.440Z,101924.50
2019-03-31T14:28:55.799Z,101926.17
2019-03-31T14:30:57.366Z,101918.89
2019-03-31T14:32:58.730Z,101919.35
2019-03-31T14:35:00.376Z,101925.47
2019-03-31T14:37:01.862Z,101923.29
2019-03-31T14:39:06.846Z,101927.66
2019-03-31T14:41:08.454Z,101926.39
2019-03-31T14:43:09.800Z,101928.95
2019-03-31T14:45:30.348Z,101918.46
2019-03-31T14:47:31.774Z,101925.16
2019-03-31T14:49:33.140Z,101929.03
2019-03-31T14:51:34.521Z,101924.09
2019-03-31T14:53:35.905Z,101923.12
2019-03-31T14:55:37.280Z,101918.36
2019-03-31T14:57:38.699Z,101920.72
2019-03-31T14:59:40.040Z,101923.41
2019-03-31T15:01:41.396Z,101926.66
2019-03-31T15:03:42.821Z,101924.56
2019-03-31T15:05:44.194Z,101924.20
2019-03-31T15:07:45.637Z,101925.69
2019-03-31T15:09:47.031Z,101926.51
2019-03-31T15:11:48.391Z,101928.70
2019-03-31T15:13:49.749Z,101931.23
2019-03-31T15:15:51.140Z,101935.13
2019-03-31T15:17:52.514Z,101923.63
2019-03-31T15:19:53.900Z,101927.66
2019-03-31T15:21:55.289Z,101929.80
2019-03-31T15:23:56.661Z,101937.08
2019-03-31T15:25:57.998Z,101928.31
2019-03-31T15:27:59.383Z,101940.39
2019-03-31T15:30:03.234Z,101938.45
2019-03-31T15:32:04.582Z,101942.07
2019-03-31T15:34:06.061Z,101944.11
2019-03-31T15:36:07.601Z,101942.49
2019-03-31T15:38:08.984Z,101942.48
2019-03-31T15:40:11.078Z,101940.77
2019-03-31T15:42:12.470Z,101941.66
2019-03-31T15:44:13.820Z,101943.69
2019-03-31T15:46:15.245Z,101942.20
2019-03-31T15:48:16.604Z,101943.08
2019-03-31T15:50:18.264Z,101946.88
2019-03-31T15:52:19.694Z,101943.95
2019-03-31T15:54:21.067Z,101948.38
2019-03-31T15:56:22.429Z,101946.52
2019-03-31T15:58:23.842Z,101947.85
2019-03-31T16:00:25.191Z,101942.32
2019-03-31T16:02:28.562Z,101937.86
2019-03-31T16:04:29.955Z,101943.09
2019-03-31T16:06:31.333Z,101946.48
2019-03-31T16:08:32.716Z,101939.80
2019-03-31T16:10:34.219Z,101945.49
2019-03-31T16:12:35.646Z,101951.80
2019-03-31T16:14:37.020Z,101962.29
2019-03-31T16:16:38.400Z,101953.83
2019-03-31T16:18:39.784Z,101957.11
2019-03-31T16:20:41.162Z,101960.02
2019-03-31T16:22:42.523Z,101958.82
2019-03-31T16:24:45.833Z,101961.08
2019-03-31T16:26:47.180Z,101963.60
2019-03-31T16:28:48.600Z,101963.17
2019-03-31T16:30:49.972Z,101963.94
2019-03-31T16:32:51.372Z,101966.98
2019-03-31T16:34:52.765Z,101965.16
2019-03-31T16:36:54.156Z,101963.92
2019-03-31T16:38:55.518Z,101970.07
2019-03-31T16:40:56.898Z,101966.98
2019-03-31T16:42:58.291Z,101968.67
2019-03-31T16:44:59.656Z,101977.47
2019-03-31T16:47:01.041Z,101980.27
2019-03-31T16:49:02.449Z,101976.67
2019-03-31T16:51:03.815Z,101981.80
2019-03-31T16:53:05.185Z,101979.73
2019-03-31T16:55:06.875Z,101980.48
2019-03-31T16:57:08.506Z,101979.69
2019-03-31T16:59:09.920Z,101981.84
2019-03-31T17:01:11.319Z,101988.14
2019-03-31T17:03:12.674Z,101984.47
2019-03-31T17:05:21.584Z,101990.95
2019-03-31T17:07:17.620Z,101990.59
2019-03-31T17:09:19.017Z,101989.94
2019-03-31T17:11:20.369Z,101995.95
2019-03-31T17:13:21.781Z,101994.64
2019-03-31T17:15:23.131Z,101995.87
2019-03-31T17:17:24.539Z,101998.59
2019-03-31T17:19:25.924Z,102001.66
2019-03-31T17:21:27.270Z,102004.45
2019-03-31T17:23:28.651Z,102007.36
2019-03-31T17:25:30.171Z,102015.55
2019-03-31T17:27:31.564Z,102020.30
2019-03-31T17:29:32.929Z,102021.91
2019-03-31T17:31:34.278Z,102023.92
2019-03-31T17:33:35.684Z,102019.87
2019-03-31T17:35:37.035Z,102023.67
2019-03-31T17:37:38.394Z,102028.16
2019-03-31T17:39:39.801Z,102025.77
2019-03-31T17:41:41.221Z,102025.81
2019-03-31T17:43:42.599Z,102026.77
2019-03-31T17:45:44.049Z,102028.22
2019-03-31T17:47:45.437Z,102031.19
2019-03-31T17:49:46.816Z,102034.86
2019-03-31T17:51:48.479Z,102033.98
2019-03-31T17:53:50.117Z,102040.59
2019-03-31T17:55:51.499Z,102048.11
2019-03-31T17:57:52.837Z,102046.64
2019-03-31T17:59:54.236Z,102051.80
2019-03-31T18:01:55.595Z,102057.91
2019-03-31T18:03:56.976Z,102054.16
2019-03-31T18:05:58.371Z,102058.11
2019-03-31T18:07:59.810Z,102059.08
2019-03-31T18:10:01.182Z,102062.33
2019-03-31T18:12:02.560Z,102061.58
2019-03-31T18:14:06.806Z,102068.78
2019-03-31T18:16:07.351Z,102064.11
2019-03-31T18:18:08.725Z,102070.59
2019-03-31T18:20:10.246Z,102074.84
2019-03-31T18:22:16.786Z,102078.58
2019-03-31T18:24:14.963Z,102080.84
2019-03-31T18:26:16.345Z,102082.76
2019-03-31T18:28:17.675Z,102085.37
2019-03-31T18:30:19.911Z,102089.20
2019-03-31T18:32:21.238Z,102088.39
2019-03-31T18:34:22.632Z,102097.86
2019-03-31T18:36:35.929Z,102103.75
2019-03-31T18:38:27.299Z,102100.67
2019-03-31T18:40:35.259Z,102107.22
2019-03-31T18:42:32.189Z,102106.95
2019-03-31T18:44:33.558Z,102111.00
2019-03-31T18:46:34.989Z,102117.34
2019-03-31T18:48:36.363Z,102118.81
2019-03-31T18:50:37.761Z,102122.46
2019-03-31T18:52:39.204Z,102131.16
2019-03-31T18:54:48.153Z,102127.33
2019-03-31T18:57:03.679Z,102134.20
2019-03-31T18:59:07.010Z,102136.02
2019-03-31T19:01:15.965Z,102141.52
2019-03-31T19:03:37.274Z,102141.94
2019-03-31T19:05:52.545Z,102143.91
2019-03-31T19:07:55.804Z,102145.66
2019-03-31T19:10:04.989Z,102149.35
2019-03-31T19:12:26.512Z,102151.48
2019-03-31T19:14:30.107Z,102149.60
2019-03-31T19:16:33.425Z,102151.77
2019-03-31T19:18:39.579Z,102158.27
2019-03-31T19:20:54.800Z,102159.25
2019-03-31T19:22:58.163Z,102156.26
2019-03-31T19:25:18.312Z,102160.13
2019-03-31T19:27:30.505Z,102160.02
2019-03-31T19:29:45.712Z,102162.53
2019-03-31T19:31:51.756Z,102166.84
2019-03-31T19:34:09.990Z,102170.09
2019-03-31T19:36:30.144Z,102172.22
2019-03-31T19:38:33.451Z,102172.58
2019-03-31T19:40:45.946Z,102172.30
2019-03-31T19:43:04.545Z,102172.22
2019-03-31T19:45:19.880Z,102177.27
2019-03-31T19:47:23.813Z,102176.05
2019-03-31T19:49:36.074Z,102182.15
2019-03-31T19:51:51.227Z,102174.80
2019-03-31T19:54:11.375Z,102185.27
2019-03-31T19:56:20.577Z,102185.48
2019-03-31T19:58:40.695Z,102194.45
2019-03-31T20:00:53.974Z,102197.58
2019-03-31T20:02:57.291Z,102196.66
2019-03-31T20:05:00.554Z,102192.88
2019-03-31T20:07:04.618Z,102201.32
2019-03-31T20:09:17.972Z,102202.44
2019-03-31T20:11:27.119Z,102205.53
2019-03-31T20:13:33.321Z,102208.58
2019-03-31T20:15:42.552Z,102205.72
2019-03-31T20:18:01.159Z,102209.20
2019-03-31T20:20:09.579Z,102207.13
2019-03-31T20:22:31.019Z,102210.80
2019-03-31T20:24:34.311Z,102213.08
2019-03-31T20:26:46.718Z,102207.42
2019-03-31T20:28:50.016Z,102215.88
2019-03-31T20:31:10.214Z,102214.30
2019-03-31T20:33:22.446Z,102223.19
2019-03-31T20:35:34.707Z,102224.23
2019-03-31T20:37:41.560Z,102231.11
2019-03-31T20:39:56.682Z,102231.56
2019-03-31T20:41:55.901Z,102232.06
2019-03-31T20:43:57.297Z,102232.81
2019-03-31T20:45:58.687Z,102234.14
2019-03-31T20:48:06.306Z,102234.31
2019-03-31T20:50:07.879Z,102234.86
2019-03-31T20:52:09.251Z,102243.77
2019-03-31T20:54:10.727Z,102245.12
2019-03-31T20:56:12.100Z,102249.32
2019-03-31T20:58:13.452Z,102249.97
2019-03-31T21:00:15.153Z,102253.41
2019-03-31T21:02:16.533Z,102249.41
2019-03-31T21:04:17.926Z,102255.62
2019-03-31T21:06:19.306Z,102256.94
2019-03-31T21:08:20.680Z,102261.64
2019-03-31T21:10:22.046Z,102262.65
2019-03-31T21:12:23.417Z,102267.07
2019-03-31T21:14:24.817Z,102270.83
2019-03-31T21:16:26.576Z,102271.49
2019-03-31T21:18:27.944Z,102275.09
2019-03-31T21:20:29.325Z,102274.45
2019-03-31T21:22:30.683Z,102274.92
2019-03-31T21:24:32.047Z,102280.64
2019-03-31T21:26:33.463Z,102279.50
2019-03-31T21:28:34.864Z,102284.08
2019-03-31T21:30:36.975Z,102286.69
2019-03-31T21:32:38.593Z,102289.30
2019-03-31T21:34:40.186Z,102287.66
2019-03-31T21:36:41.548Z,102292.39
2019-03-31T21:38:42.949Z,102295.15
2019-03-31T21:40:44.356Z,102298.73
2019-03-31T21:42:45.726Z,102297.42
2019-03-31T21:44:47.136Z,102299.41
2019-03-31T21:46:48.527Z,102297.92
2019-03-31T21:48:49.919Z,102301.53
2019-03-31T21:50:51.282Z,102303.16
2019-03-31T21:52:52.650Z,102299.20
2019-03-31T21:54:54.036Z,102299.50
2019-03-31T21:56:55.437Z,102305.50
2019-03-31T21:58:56.792Z,102301.27
2019-03-31T22:00:58.571Z,102303.55
2019-03-31T22:02:59.973Z,102302.71
2019-03-31T22:05:01.939Z,102304.67
2019-03-31T22:07:03.427Z,102312.78
2019-03-31T22:09:07.297Z,102315.67
2019-03-31T22:11:08.683Z,102315.47
2019-03-31T22:13:10.056Z,102310.08
2019-03-31T22:15:11.618Z,102313.79
2019-03-31T22:17:13.020Z,102308.91
2019-03-31T22:19:14.378Z,102308.83
2019-03-31T22:21:15.774Z,102317.87
2019-03-31T22:23:17.172Z,102322.00
2019-03-31T22:25:18.574Z,102318.77
2019-03-31T22:27:19.933Z,102324.69
2019-03-31T22:29:21.336Z,102323.82
2019-03-31T22:31:22.694Z,102326.91
2019-03-31T22:33:24.274Z,102329.75
2019-03-31T22:35:25.638Z,102332.31
2019-03-31T22:37:27.040Z,102334.69
2019-03-31T22:39:28.489Z,102333.13
2019-03-31T22:41:29.861Z,102333.00
2019-03-31T22:43:31.238Z,102336.32
2019-03-31T22:45:32.647Z,102336.01
2019-03-31T22:47:34.004Z,102334.33
2019-03-31T22:49:35.391Z,102335.45
2019-03-31T22:51:36.755Z,102336.93
2019-03-31T22:53:38.167Z,102339.33
2019-03-31T22:55:39.606Z,102334.22
2019-03-31T22:57:40.971Z,102333.09
2019-03-31T22:59:42.342Z,102332.13
2019-03-31T23:01:43.755Z,102336.13
2019-03-31T23:03:45.118Z,102338.70
2019-03-31T23:05:46.481Z,102335.14
2019-03-31T23:07:47.920Z,102337.12
2019-03-31T23:09:49.282Z,102340.02
2019-03-31T23:11:50.746Z,102341.91
2019-03-31T23:13:52.147Z,102342.61
2019-03-31T23:15:53.650Z,102343.20
2019-03-31T23:17:55.009Z,102344.80
2019-03-31T23:19:56.403Z,102353.70
2019-03-31T23:21:57.759Z,102355.09
2019-03-31T23:23:59.131Z,102355.80
2019-03-31T23:26:00.513Z,102358.87
2019-03-31T23:28:01.903Z,102354.48
2019-03-31T23:30:07.761Z,102353.52
2019-03-31T23:32:09.166Z,102354.91